createdAt,value
2019-02-25T00:00:05.803Z,50.80
2019-02-25T00:01:06.014Z,50.80
2019-02-25T00:02:07.834Z,50.70
2019-02-25T00:03:11.027Z,50.60
2019-02-25T00:04:05.160Z,50.70
2019-02-25T00:05:05.321Z,50.80
2019-02-25T00:06:05.541Z,51.00
2019-02-25T00:07:05.808Z,50.90
2019-02-25T00:08:05.157Z,50.90
2019-02-25T00:09:05.310Z,50.90
2019-02-25T00:10:07.977Z,50.90
2019-02-25T00:11:04.991Z,50.90
2019-02-25T00:12:07.671Z,51.00
2019-02-25T00:13:05.737Z,50.90
2019-02-25T00:14:08.368Z,51.00
2019-02-25T00:15:10.436Z,51.00
2019-02-25T00:16:09.903Z,51.00
2019-02-25T00:17:05.929Z,50.90
2019-02-25T00:18:05.042Z,51.20
2019-02-25T00:19:07.660Z,51.10
2019-02-25T00:20:08.175Z,51.80
2019-02-25T00:21:05.255Z,51.80
2019-02-25T00:22:05.458Z,51.70
2019-02-25T00:23:05.633Z,51.60
2019-02-25T00:24:05.736Z,51.70
2019-02-25T00:25:05.069Z,51.70
2019-02-25T00:26:05.246Z,51.70
2019-02-25T00:27:05.460Z,51.70
2019-02-25T00:28:05.580Z,51.60
2019-02-25T00:29:05.688Z,51.60
2019-02-25T00:30:05.100Z,51.60
2019-02-25T00:31:05.195Z,51.70
2019-02-25T00:32:05.302Z,51.70
2019-02-25T00:33:05.398Z,51.60
2019-02-25T00:34:05.632Z,52.00
2019-02-25T00:35:05.735Z,52.20
2019-02-25T00:36:05.797Z,52.30
2019-02-25T00:37:05.914Z,52.20
2019-02-25T00:38:05.094Z,52.00
2019-02-25T00:39:05.366Z,52.00
2019-02-25T00:40:05.584Z,52.00
2019-02-25T00:41:08.315Z,51.90
2019-02-25T00:42:07.959Z,51.70
2019-02-25T00:43:05.025Z,51.80
2019-02-25T00:44:05.166Z,51.80
2019-02-25T00:45:05.353Z,52.20
2019-02-25T00:46:08.085Z,52.20
2019-02-25T00:47:07.747Z,52.20
2019-02-25T00:48:05.731Z,52.20
2019-02-25T00:49:05.858Z,52.10
2019-02-25T00:50:07.480Z,52.10
2019-02-25T00:51:05.540Z,52.10
2019-02-25T00:52:05.722Z,52.00
2019-02-25T00:53:05.790Z,51.90
2019-02-25T00:54:05.900Z,51.90
2019-02-25T00:55:04.989Z,51.80
2019-02-25T00:56:07.609Z,51.90
2019-02-25T00:57:05.550Z,51.90
2019-02-25T00:58:08.174Z,51.80
2019-02-25T00:59:07.857Z,51.90
2019-02-25T01:00:10.942Z,51.90
2019-02-25T01:01:05.964Z,51.90
2019-02-25T01:02:05.057Z,51.90
2019-02-25T01:03:05.238Z,51.90
2019-02-25T01:04:05.291Z,52.00
2019-02-25T01:05:05.433Z,51.90
2019-02-25T01:06:08.062Z,51.80
2019-02-25T01:07:05.059Z,51.90
2019-02-25T01:08:08.255Z,51.90
2019-02-25T01:09:07.841Z,51.90
2019-02-25T01:10:05.885Z,51.90
2019-02-25T01:11:07.622Z,51.80
2019-02-25T01:12:05.616Z,51.80
2019-02-25T01:13:05.747Z,51.80
2019-02-25T01:14:08.577Z,51.90
2019-02-25T01:15:08.263Z,51.90
2019-02-25T01:16:05.357Z,51.90
2019-02-25T01:17:05.488Z,51.80
2019-02-25T01:18:05.745Z,51.90
2019-02-25T01:19:05.863Z,52.00
2019-02-25T01:20:06.023Z,52.10
2019-02-25T01:21:05.228Z,52.20
2019-02-25T01:22:08.043Z,52.20
2019-02-25T01:23:05.168Z,52.20
2019-02-25T01:24:05.439Z,52.20
2019-02-25T01:25:05.523Z,52.30
2019-02-25T01:26:08.170Z,52.10
2019-02-25T01:27:05.241Z,52.10
2019-02-25T01:28:05.375Z,52.10
2019-02-25T01:29:05.464Z,52.20
2019-02-25T01:30:05.904Z,52.30
2019-02-25T01:31:05.057Z,52.30
2019-02-25T01:32:05.186Z,52.30
2019-02-25T01:33:05.315Z,52.40
2019-02-25T01:34:05.456Z,52.30
2019-02-25T01:35:05.721Z,52.30
2019-02-25T01:36:05.834Z,52.40
2019-02-25T01:37:05.910Z,52.40
2019-02-25T01:38:07.628Z,52.40
2019-02-25T01:39:05.743Z,52.40
2019-02-25T01:40:05.884Z,52.60
2019-02-25T01:41:10.034Z,52.60
2019-02-25T01:42:05.017Z,52.60
2019-02-25T01:43:07.693Z,52.90
2019-02-25T01:44:08.321Z,53.00
2019-02-25T01:45:05.345Z,52.90
2019-02-25T01:46:05.400Z,53.00
2019-02-25T01:47:05.473Z,53.00
2019-02-25T01:48:05.608Z,53.00
2019-02-25T01:49:06.008Z,52.90
2019-02-25T01:50:05.374Z,52.90
2019-02-25T01:51:05.492Z,53.10
2019-02-25T01:52:05.704Z,53.20
2019-02-25T01:53:05.996Z,53.20
2019-02-25T01:54:05.114Z,53.20
2019-02-25T01:55:05.262Z,53.20
2019-02-25T01:56:05.421Z,53.10
2019-02-25T01:57:05.607Z,53.10
2019-02-25T01:58:08.399Z,53.00
2019-02-25T01:59:05.546Z,53.10
2019-02-25T02:00:08.198Z,53.00
2019-02-25T02:01:05.270Z,53.00
2019-02-25T02:02:05.336Z,53.00
2019-02-25T02:03:07.944Z,53.00
2019-02-25T02:04:05.968Z,53.00
2019-02-25T02:05:07.741Z,53.00
2019-02-25T02:06:05.816Z,53.00
2019-02-25T02:07:05.944Z,53.00
2019-02-25T02:08:07.637Z,53.20
2019-02-25T02:09:05.658Z,53.20
2019-02-25T02:10:05.739Z,53.20
2019-02-25T02:11:08.369Z,53.40
2019-02-25T02:12:07.831Z,53.60
2019-02-25T02:13:14.619Z,53.50
2019-02-25T02:14:08.315Z,53.60
2019-02-25T02:15:05.390Z,53.60
2019-02-25T02:16:05.565Z,53.70
2019-02-25T02:17:05.750Z,53.70
2019-02-25T02:18:05.839Z,53.80
2019-02-25T02:19:08.370Z,53.90
2019-02-25T02:20:10.530Z,53.90
2019-02-25T02:21:05.611Z,53.80
2019-02-25T02:22:05.705Z,53.80
2019-02-25T02:23:05.923Z,53.90
2019-02-25T02:24:07.616Z,53.90
2019-02-25T02:25:08.188Z,53.80
2019-02-25T02:26:07.718Z,53.90
2019-02-25T02:27:10.796Z,54.10
2019-02-25T02:28:08.273Z,54.10
2019-02-25T02:29:05.249Z,54.10
2019-02-25T02:30:08.122Z,54.30
2019-02-25T02:31:05.111Z,54.40
2019-02-25T02:32:07.768Z,54.30
2019-02-25T02:33:05.791Z,54.30
2019-02-25T02:34:05.912Z,54.30
2019-02-25T02:35:07.688Z,54.10
2019-02-25T02:36:10.697Z,54.10
2019-02-25T02:37:05.607Z,54.10
2019-02-25T02:38:05.781Z,54.10
2019-02-25T02:39:06.071Z,54.10
2019-02-25T02:40:05.234Z,53.90
2019-02-25T02:41:05.401Z,53.90
2019-02-25T02:42:05.483Z,54.10
2019-02-25T02:43:05.649Z,54.00
2019-02-25T02:44:05.803Z,54.10
2019-02-25T02:45:05.914Z,54.10
2019-02-25T02:46:05.026Z,54.10
2019-02-25T02:47:05.392Z,54.10
2019-02-25T02:48:05.545Z,54.00
2019-02-25T02:49:08.358Z,54.00
2019-02-25T02:50:05.376Z,54.00
2019-02-25T02:51:08.073Z,54.00
2019-02-25T02:52:05.017Z,53.90
2019-02-25T02:53:05.130Z,53.90
2019-02-25T02:54:05.296Z,53.70
2019-02-25T02:55:07.949Z,53.90
2019-02-25T02:56:07.481Z,53.90
2019-02-25T02:57:05.483Z,53.90
2019-02-25T02:58:05.693Z,53.90
2019-02-25T02:59:08.373Z,53.80
2019-02-25T03:00:05.580Z,53.80
2019-02-25T03:01:05.902Z,53.80
2019-02-25T03:02:05.038Z,53.90
2019-02-25T03:03:05.164Z,53.90
2019-02-25T03:04:07.746Z,54.00
2019-02-25T03:05:05.679Z,53.90
2019-02-25T03:06:05.836Z,54.20
2019-02-25T03:07:06.096Z,54.00
2019-02-25T03:08:05.266Z,54.00
2019-02-25T03:09:05.473Z,54.00
2019-02-25T03:10:08.168Z,54.20
2019-02-25T03:11:07.692Z,54.50
2019-02-25T03:12:05.660Z,54.50
2019-02-25T03:13:08.424Z,54.60
2019-02-25T03:14:05.441Z,54.60
2019-02-25T03:15:08.081Z,54.60
2019-02-25T03:16:05.074Z,54.60
2019-02-25T03:17:07.784Z,54.70
2019-02-25T03:18:05.763Z,54.70
2019-02-25T03:19:11.083Z,54.50
2019-02-25T03:20:07.642Z,54.50
2019-02-25T03:21:08.122Z,54.40
2019-02-25T03:22:07.795Z,54.50
2019-02-25T03:23:08.406Z,54.60
2019-02-25T03:24:05.399Z,54.60
2019-02-25T03:25:08.051Z,54.60
2019-02-25T03:26:07.484Z,54.60
2019-02-25T03:27:05.498Z,54.60
2019-02-25T03:28:08.238Z,54.60
2019-02-25T03:29:05.217Z,54.50
2019-02-25T03:30:07.987Z,54.60
2019-02-25T03:31:07.522Z,54.50
2019-02-25T03:32:05.508Z,54.50
2019-02-25T03:33:05.883Z,54.50
2019-02-25T03:34:12.662Z,54.70
2019-02-25T03:35:05.653Z,54.60
2019-02-25T03:36:10.909Z,54.90
2019-02-25T03:37:08.454Z,55.00
2019-02-25T03:38:07.952Z,55.00
2019-02-25T03:39:06.044Z,55.00
2019-02-25T03:40:07.738Z,55.20
2019-02-25T03:41:05.708Z,55.20
2019-02-25T03:42:08.347Z,55.30
2019-02-25T03:43:07.798Z,55.30
2019-02-25T03:44:05.844Z,55.30
2019-02-25T03:45:04.989Z,55.20
2019-02-25T03:46:05.379Z,55.30
2019-02-25T03:47:07.978Z,55.40
2019-02-25T03:48:06.094Z,55.40
2019-02-25T03:49:07.900Z,55.40
2019-02-25T03:50:05.872Z,55.40
2019-02-25T03:51:08.399Z,55.50
2019-02-25T03:52:07.872Z,55.60
2019-02-25T03:53:06.014Z,55.60
2019-02-25T03:54:07.647Z,55.80
2019-02-25T03:55:10.773Z,55.90
2019-02-25T03:56:08.298Z,56.00
2019-02-25T03:57:05.402Z,56.00
2019-02-25T03:58:05.702Z,55.80
2019-02-25T03:59:05.826Z,55.60
2019-02-25T04:00:07.596Z,55.70
2019-02-25T04:01:08.189Z,55.80
2019-02-25T04:02:05.195Z,55.80
2019-02-25T04:03:07.848Z,55.70
2019-02-25T04:04:08.428Z,55.60
2019-02-25T04:05:05.471Z,55.60
2019-02-25T04:06:05.521Z,55.50
2019-02-25T04:07:05.096Z,55.50
2019-02-25T04:08:05.329Z,55.50
2019-02-25T04:09:05.498Z,55.40
2019-02-25T04:10:05.593Z,55.40
2019-02-25T04:11:05.770Z,55.30
2019-02-25T04:12:05.894Z,55.40
2019-02-25T04:13:07.538Z,55.40
2019-02-25T04:14:05.619Z,55.30
2019-02-25T04:15:05.787Z,55.20
2019-02-25T04:16:08.520Z,55.40
2019-02-25T04:17:05.562Z,55.30
2019-02-25T04:18:05.682Z,55.40
2019-02-25T04:19:05.761Z,55.40
2019-02-25T04:20:08.363Z,55.20
2019-02-25T04:21:05.376Z,55.20
2019-02-25T04:22:08.130Z,55.30
2019-02-25T04:23:07.618Z,55.40
2019-02-25T04:24:08.194Z,55.50
2019-02-25T04:25:05.161Z,55.50
2019-02-25T04:26:05.252Z,55.50
2019-02-25T04:27:10.371Z,55.40
2019-02-25T04:28:05.320Z,55.40
2019-02-25T04:29:05.436Z,55.40
2019-02-25T04:30:05.864Z,55.40
2019-02-25T04:31:08.465Z,55.60
2019-02-25T04:32:05.392Z,55.60
2019-02-25T04:33:05.602Z,55.60
2019-02-25T04:34:05.798Z,55.70
2019-02-25T04:35:05.918Z,55.70
2019-02-25T04:36:07.544Z,55.70
2019-02-25T04:37:05.549Z,55.80
2019-02-25T04:38:05.692Z,55.70
2019-02-25T04:39:08.335Z,55.70
2019-02-25T04:40:07.803Z,55.70
2019-02-25T04:41:08.308Z,55.70
2019-02-25T04:42:07.823Z,55.70
2019-02-25T04:43:05.808Z,55.70
2019-02-25T04:44:05.909Z,55.70
2019-02-25T04:45:05.010Z,55.70
2019-02-25T04:46:07.832Z,55.70
2019-02-25T04:47:05.857Z,55.70
2019-02-25T04:48:05.912Z,55.70
2019-02-25T04:49:05.191Z,55.70
2019-02-25T04:50:05.354Z,55.70
2019-02-25T04:51:07.946Z,55.80
2019-02-25T04:52:08.447Z,55.90
2019-02-25T04:53:07.898Z,55.90
2019-02-25T04:54:08.465Z,55.90
2019-02-25T04:55:05.413Z,55.90
2019-02-25T04:56:08.072Z,55.90
2019-02-25T04:57:05.023Z,55.90
2019-02-25T04:58:07.749Z,55.70
2019-02-25T04:59:05.712Z,55.70
2019-02-25T05:00:05.849Z,55.70
2019-02-25T05:01:13.636Z,55.70
2019-02-25T05:02:05.778Z,55.80
2019-02-25T05:03:08.432Z,56.00
2019-02-25T05:04:05.568Z,55.90
2019-02-25T05:05:10.733Z,55.80
2019-02-25T05:06:05.881Z,55.80
2019-02-25T05:07:05.213Z,56.10
2019-02-25T05:08:05.364Z,56.20
2019-02-25T05:09:08.048Z,56.30
2019-02-25T05:10:05.010Z,56.40
2019-02-25T05:11:05.300Z,56.10
2019-02-25T05:12:08.011Z,56.30
2019-02-25T05:13:05.020Z,56.30
2019-02-25T05:14:05.160Z,56.20
2019-02-25T05:15:05.257Z,56.30
2019-02-25T05:16:10.506Z,56.40
2019-02-25T05:17:08.144Z,56.30
2019-02-25T05:18:05.250Z,56.30
2019-02-25T05:19:05.421Z,56.40
2019-02-25T05:20:08.208Z,56.40
2019-02-25T05:21:07.919Z,56.50
2019-02-25T05:22:07.531Z,56.60
2019-02-25T05:23:08.044Z,56.60
2019-02-25T05:24:10.121Z,56.60
2019-02-25T05:25:08.047Z,56.70
2019-02-25T05:26:05.057Z,56.70
2019-02-25T05:27:07.856Z,57.00
2019-02-25T05:28:08.447Z,56.80
2019-02-25T05:29:05.555Z,56.80
2019-02-25T05:30:09.221Z,56.80
2019-02-25T05:31:05.179Z,56.80
2019-02-25T05:32:07.929Z,56.70
2019-02-25T05:33:08.483Z,56.70
2019-02-25T05:34:05.414Z,56.70
2019-02-25T05:35:05.520Z,56.70
2019-02-25T05:36:05.638Z,56.60
2019-02-25T05:37:05.734Z,56.60
2019-02-25T05:38:05.833Z,56.70
2019-02-25T05:39:05.945Z,56.70
2019-02-25T05:40:05.067Z,56.70
2019-02-25T05:41:05.139Z,56.70
2019-02-25T05:42:05.236Z,56.60
2019-02-25T05:43:05.452Z,56.60
2019-02-25T05:44:10.617Z,56.60
2019-02-25T05:45:08.210Z,56.60
2019-02-25T05:46:05.232Z,56.60
2019-02-25T05:47:05.508Z,56.60
2019-02-25T05:48:05.690Z,56.50
2019-02-25T05:49:05.871Z,56.50
2019-02-25T05:50:05.204Z,56.60
2019-02-25T05:51:05.359Z,56.50
2019-02-25T05:52:05.504Z,56.50
2019-02-25T05:53:05.536Z,56.50
2019-02-25T05:54:05.667Z,56.50
2019-02-25T05:55:05.878Z,56.50
2019-02-25T05:56:05.112Z,56.60
2019-02-25T05:57:07.755Z,56.60
2019-02-25T05:58:08.219Z,56.60
2019-02-25T05:59:07.721Z,56.60
2019-02-25T06:00:08.256Z,56.60
2019-02-25T06:01:05.246Z,56.70
2019-02-25T06:02:05.918Z,56.70
2019-02-25T06:03:07.617Z,56.70
2019-02-25T06:04:05.610Z,56.70
2019-02-25T06:05:08.274Z,56.90
2019-02-25T06:06:05.234Z,56.90
2019-02-25T06:07:10.957Z,57.20
2019-02-25T06:08:06.070Z,57.10
2019-02-25T06:09:05.248Z,57.10
2019-02-25T06:10:05.347Z,57.20
2019-02-25T06:11:05.573Z,57.20
2019-02-25T06:12:05.724Z,57.20
2019-02-25T06:13:08.366Z,57.50
2019-02-25T06:14:05.472Z,57.30
2019-02-25T06:15:05.665Z,57.30
2019-02-25T06:16:08.308Z,57.50
2019-02-25T06:17:05.486Z,57.40
2019-02-25T06:18:05.691Z,57.70
2019-02-25T06:19:05.974Z,57.70
2019-02-25T06:20:05.235Z,57.60
2019-02-25T06:21:07.985Z,57.50
2019-02-25T06:22:05.022Z,57.60
2019-02-25T06:23:05.185Z,57.60
2019-02-25T06:24:07.889Z,57.50
2019-02-25T06:25:08.405Z,57.50
2019-02-25T06:26:08.124Z,57.40
2019-02-25T06:27:05.237Z,57.40
2019-02-25T06:28:05.505Z,57.40
2019-02-25T06:29:08.300Z,57.40
2019-02-25T06:30:04.962Z,57.40
2019-02-25T06:31:07.689Z,57.40
2019-02-25T06:32:05.727Z,57.40
2019-02-25T06:33:05.895Z,57.40
2019-02-25T06:34:05.184Z,57.50
2019-02-25T06:35:05.444Z,57.50
2019-02-25T06:36:05.569Z,57.50
2019-02-25T06:37:05.800Z,57.50
2019-02-25T06:38:08.451Z,57.60
2019-02-25T06:39:10.574Z,57.60
2019-02-25T06:40:05.565Z,57.60
2019-02-25T06:41:08.418Z,57.60
2019-02-25T06:42:05.552Z,57.60
2019-02-25T06:43:05.845Z,57.60
2019-02-25T06:44:10.087Z,57.50
2019-02-25T06:45:07.634Z,57.50
2019-02-25T06:46:05.687Z,57.50
2019-02-25T06:47:08.420Z,57.60
2019-02-25T06:48:05.385Z,57.60
2019-02-25T06:49:05.517Z,57.70
2019-02-25T06:50:05.691Z,57.80
2019-02-25T06:51:11.058Z,57.80
2019-02-25T06:52:05.057Z,57.80
2019-02-25T06:53:05.319Z,57.70
2019-02-25T06:54:05.395Z,57.80
2019-02-25T06:55:05.643Z,57.80
2019-02-25T06:56:08.338Z,57.70
2019-02-25T06:57:05.363Z,57.70
2019-02-25T06:58:05.597Z,57.60
2019-02-25T06:59:05.758Z,57.50
2019-02-25T07:00:08.415Z,57.30
2019-02-25T07:01:05.409Z,57.30
2019-02-25T07:02:08.087Z,57.00
2019-02-25T07:03:05.318Z,57.10
2019-02-25T07:04:05.443Z,56.90
2019-02-25T07:05:08.163Z,56.70
2019-02-25T07:06:05.133Z,56.80
2019-02-25T07:07:05.351Z,56.70
2019-02-25T07:08:05.493Z,56.40
2019-02-25T07:09:08.282Z,55.90
2019-02-25T07:10:07.890Z,55.80
2019-02-25T07:11:05.834Z,55.70
2019-02-25T07:12:05.165Z,55.60
2019-02-25T07:13:05.315Z,55.60
2019-02-25T07:14:08.106Z,55.30
2019-02-25T07:15:05.156Z,55.30
2019-02-25T07:16:07.905Z,55.10
2019-02-25T07:17:05.271Z,55.10
2019-02-25T07:18:07.185Z,55.00
2019-02-25T07:19:05.306Z,54.80
2019-02-25T07:20:08.080Z,54.70
2019-02-25T07:21:05.146Z,54.70
2019-02-25T07:22:08.105Z,54.70
2019-02-25T07:23:07.985Z,54.70
2019-02-25T07:24:07.705Z,54.40
2019-02-25T07:25:10.794Z,54.30
2019-02-25T07:26:05.810Z,54.30
2019-02-25T07:27:08.505Z,54.40
2019-02-25T07:28:10.732Z,54.30
2019-02-25T07:29:05.850Z,54.30
2019-02-25T07:30:07.629Z,53.90
2019-02-25T07:31:05.669Z,53.90
2019-02-25T07:32:08.433Z,53.50
2019-02-25T07:33:05.613Z,53.50
2019-02-25T07:34:05.861Z,53.40
2019-02-25T07:35:07.979Z,53.20
2019-02-25T07:36:05.146Z,53.20
2019-02-25T07:37:05.584Z,53.00
2019-02-25T07:38:05.116Z,52.70
2019-02-25T07:39:10.823Z,52.00
2019-02-25T07:40:05.931Z,52.00
2019-02-25T07:41:05.026Z,51.90
2019-02-25T07:42:05.166Z,51.80
2019-02-25T07:43:05.335Z,51.70
2019-02-25T07:44:05.475Z,51.40
2019-02-25T07:45:05.569Z,51.40
2019-02-25T07:46:05.664Z,51.20
2019-02-25T07:47:05.974Z,51.10
2019-02-25T07:48:05.193Z,50.70
2019-02-25T07:49:08.019Z,50.10
2019-02-25T07:50:07.627Z,49.90
2019-02-25T07:51:10.793Z,49.70
2019-02-25T07:52:05.852Z,49.60
2019-02-25T07:53:05.039Z,49.70
2019-02-25T07:54:07.157Z,49.80
2019-02-25T07:55:07.786Z,49.90
2019-02-25T07:56:08.336Z,49.70
2019-02-25T07:57:07.812Z,49.60
2019-02-25T07:58:13.530Z,49.60
2019-02-25T07:59:08.136Z,49.30
2019-02-25T08:00:05.312Z,49.30
2019-02-25T08:01:07.988Z,49.10
2019-02-25T08:02:08.638Z,49.00
2019-02-25T08:03:05.711Z,49.00
2019-02-25T08:04:05.804Z,49.00
2019-02-25T08:05:06.042Z,48.50
2019-02-25T08:06:07.713Z,48.10
2019-02-25T08:07:08.213Z,47.80
2019-02-25T08:08:07.723Z,47.60
2019-02-25T08:09:05.728Z,47.60
2019-02-25T08:10:10.979Z,47.60
2019-02-25T08:11:05.162Z,47.60
2019-02-25T08:12:05.227Z,47.60
2019-02-25T08:13:05.570Z,47.50
2019-02-25T08:14:05.739Z,47.40
2019-02-25T08:15:05.942Z,47.10
2019-02-25T08:16:05.216Z,46.70
2019-02-25T08:17:05.320Z,46.50
2019-02-25T08:18:08.090Z,45.80
2019-02-25T08:19:05.133Z,45.80
2019-02-25T08:20:05.250Z,45.80
2019-02-25T08:21:05.388Z,45.70
2019-02-25T08:22:05.533Z,45.70
2019-02-25T08:23:08.184Z,45.80
2019-02-25T08:24:05.216Z,45.80
2019-02-25T08:25:05.333Z,45.80
2019-02-25T08:26:05.465Z,45.70
2019-02-25T08:27:05.580Z,45.70
2019-02-25T08:28:05.664Z,45.80
2019-02-25T08:29:05.996Z,45.80
2019-02-25T08:30:05.222Z,45.80
2019-02-25T08:31:09.624Z,45.10
2019-02-25T08:32:05.619Z,45.10
2019-02-25T08:33:05.782Z,44.90
2019-02-25T08:34:08.399Z,44.20
2019-02-25T08:35:05.370Z,44.20
2019-02-25T08:36:07.645Z,43.80
2019-02-25T08:37:05.607Z,43.80
2019-02-25T08:38:05.401Z,44.00
2019-02-25T08:39:05.477Z,43.70
2019-02-25T08:40:05.568Z,43.30
2019-02-25T08:41:05.098Z,43.10
2019-02-25T08:42:07.758Z,42.20
2019-02-25T08:43:05.696Z,41.90
2019-02-25T08:44:08.543Z,41.80
2019-02-25T08:45:05.552Z,41.80
2019-02-25T08:46:05.654Z,42.10
2019-02-25T08:47:05.734Z,42.10
2019-02-25T08:48:05.853Z,41.90
2019-02-25T08:49:05.988Z,42.10
2019-02-25T08:50:05.208Z,42.30
2019-02-25T08:51:05.383Z,42.00
2019-02-25T08:52:05.450Z,41.70
2019-02-25T08:53:08.143Z,41.70
2019-02-25T08:54:05.129Z,41.70
2019-02-25T08:55:05.275Z,41.50
2019-02-25T08:56:07.920Z,41.40
2019-02-25T08:57:08.391Z,41.50
2019-02-25T08:58:07.890Z,41.50
2019-02-25T08:59:05.845Z,41.50
2019-02-25T09:00:08.661Z,41.50
2019-02-25T09:01:08.239Z,41.10
2019-02-25T09:02:05.209Z,41.10
2019-02-25T09:03:07.927Z,41.20
2019-02-25T09:04:13.479Z,41.40
2019-02-25T09:05:08.011Z,41.60
2019-02-25T09:06:07.753Z,41.60
2019-02-25T09:07:08.459Z,41.50
2019-02-25T09:08:05.472Z,41.40
2019-02-25T09:09:08.193Z,41.10
2019-02-25T09:10:05.310Z,41.20
2019-02-25T09:11:14.570Z,41.10
2019-02-25T09:12:11.060Z,41.10
2019-02-25T09:13:07.686Z,41.00
2019-02-25T09:14:05.852Z,41.00
2019-02-25T09:15:05.079Z,40.80
2019-02-25T09:16:05.239Z,40.80
2019-02-25T09:17:05.360Z,40.70
2019-02-25T09:18:05.406Z,40.70
2019-02-25T09:19:05.534Z,40.40
2019-02-25T09:20:08.250Z,40.30
2019-02-25T09:21:05.391Z,40.30
2019-02-25T09:22:08.171Z,40.50
2019-02-25T09:23:07.901Z,40.10
2019-02-25T09:24:05.966Z,40.10
2019-02-25T09:25:05.070Z,39.80
2019-02-25T09:26:05.219Z,39.50
2019-02-25T09:27:05.369Z,39.40
2019-02-25T09:28:05.465Z,39.70
2019-02-25T09:29:05.667Z,39.70
2019-02-25T09:30:08.562Z,39.80
2019-02-25T09:31:06.127Z,39.80
2019-02-25T09:32:05.217Z,39.90
2019-02-25T09:33:07.957Z,39.50
2019-02-25T09:34:06.051Z,39.50
2019-02-25T09:35:07.659Z,39.00
2019-02-25T09:36:08.319Z,39.00
2019-02-25T09:37:05.337Z,39.00
2019-02-25T09:38:05.463Z,39.10
2019-02-25T09:39:05.593Z,38.60
2019-02-25T09:40:05.976Z,38.70
2019-02-25T09:41:08.094Z,38.80
2019-02-25T09:42:10.253Z,38.90
2019-02-25T09:43:05.176Z,38.90
2019-02-25T09:44:05.394Z,38.80
2019-02-25T09:45:05.783Z,38.80
2019-02-25T09:46:07.550Z,38.60
2019-02-25T09:47:05.642Z,38.60
2019-02-25T09:48:05.746Z,38.70
2019-02-25T09:49:05.854Z,38.60
2019-02-25T09:50:05.239Z,38.60
2019-02-25T09:51:08.595Z,38.50
2019-02-25T09:52:10.781Z,38.20
2019-02-25T09:53:07.750Z,38.20
2019-02-25T09:54:06.045Z,37.70
2019-02-25T09:55:05.115Z,38.10
2019-02-25T09:56:07.781Z,38.40
2019-02-25T09:57:05.846Z,38.50
2019-02-25T09:58:08.510Z,38.60
2019-02-25T09:59:05.744Z,38.60
2019-02-25T10:00:05.963Z,38.60
2019-02-25T10:01:05.242Z,38.50
2019-02-25T10:02:05.368Z,38.70
2019-02-25T10:03:05.493Z,38.60
2019-02-25T10:04:09.229Z,38.30
2019-02-25T10:05:07.874Z,38.40
2019-02-25T10:06:08.432Z,38.40
2019-02-25T10:07:05.536Z,38.40
2019-02-25T10:08:05.671Z,38.30
2019-02-25T10:09:08.437Z,38.30
2019-02-25T10:10:05.452Z,38.30
2019-02-25T10:11:05.783Z,38.30
2019-02-25T10:12:05.968Z,38.30
2019-02-25T10:13:05.085Z,38.00
2019-02-25T10:14:05.238Z,37.50
2019-02-25T10:15:05.510Z,37.50
2019-02-25T10:16:05.615Z,37.40
2019-02-25T10:17:05.781Z,37.60
2019-02-25T10:18:05.838Z,37.70
2019-02-25T10:19:05.921Z,37.70
2019-02-25T10:20:04.998Z,37.80
2019-02-25T10:21:07.662Z,37.50
2019-02-25T10:22:08.213Z,37.30
2019-02-25T10:23:07.798Z,37.50
2019-02-25T10:24:08.394Z,37.50
2019-02-25T10:25:05.376Z,37.50
2019-02-25T10:26:08.030Z,37.50
2019-02-25T10:27:10.157Z,36.90
2019-02-25T10:28:05.209Z,36.90
2019-02-25T10:29:05.397Z,37.00
2019-02-25T10:30:05.971Z,36.80
2019-02-25T10:31:05.231Z,36.90
2019-02-25T10:32:10.483Z,36.90
2019-02-25T10:33:07.972Z,36.60
2019-02-25T10:34:05.013Z,36.60
2019-02-25T10:35:09.690Z,35.60
2019-02-25T10:36:08.251Z,35.90
2019-02-25T10:37:05.339Z,35.90
2019-02-25T10:38:05.465Z,36.10
2019-02-25T10:39:12.653Z,36.40
2019-02-25T10:40:07.620Z,36.60
2019-02-25T10:41:05.574Z,36.50
2019-02-25T10:42:08.202Z,36.50
2019-02-25T10:43:07.681Z,36.70
2019-02-25T10:44:08.629Z,36.70
2019-02-25T10:45:09.254Z,36.70
2019-02-25T10:46:06.729Z,36.70
2019-02-25T10:47:13.401Z,36.40
2019-02-25T10:48:05.531Z,36.40
2019-02-25T10:49:12.041Z,36.00
2019-02-25T10:50:07.476Z,36.00
2019-02-25T10:51:09.106Z,36.00
2019-02-25T10:52:09.082Z,36.10
2019-02-25T10:53:08.136Z,35.90
2019-02-25T10:54:07.683Z,35.80
2019-02-25T10:55:05.683Z,35.80
2019-02-25T10:56:05.760Z,35.70
2019-02-25T10:57:05.908Z,35.20
2019-02-25T10:58:10.031Z,35.10
2019-02-25T10:59:08.186Z,35.10
2019-02-25T11:00:09.462Z,34.70
2019-02-25T11:01:19.357Z,35.20
2019-02-25T11:02:05.780Z,35.20
2019-02-25T11:03:06.117Z,35.30
2019-02-25T11:04:07.760Z,35.10
2019-02-25T11:05:05.757Z,35.20
2019-02-25T11:06:05.929Z,35.20
2019-02-25T11:07:07.874Z,35.20
2019-02-25T11:08:09.063Z,34.90
2019-02-25T11:09:08.951Z,34.70
2019-02-25T11:10:05.439Z,34.70
2019-02-25T11:11:05.619Z,34.80
2019-02-25T11:12:05.761Z,34.50
2019-02-25T11:13:06.007Z,34.20
2019-02-25T11:14:07.547Z,34.30
2019-02-25T11:15:07.771Z,34.40
2019-02-25T11:16:05.629Z,34.20
2019-02-25T11:17:05.866Z,34.00
2019-02-25T11:18:05.140Z,34.10
2019-02-25T11:19:05.391Z,34.40
2019-02-25T11:20:06.048Z,34.20
2019-02-25T11:21:08.457Z,34.30
2019-02-25T11:22:08.221Z,34.10
2019-02-25T11:23:09.885Z,34.00
2019-02-25T11:24:07.758Z,34.00
2019-02-25T11:25:05.830Z,34.00
2019-02-25T11:26:09.681Z,33.10
2019-02-25T11:27:07.546Z,33.20
2019-02-25T11:28:09.222Z,33.30
2019-02-25T11:29:08.013Z,33.40
2019-02-25T11:30:05.432Z,33.50
2019-02-25T11:31:05.492Z,33.50
2019-02-25T11:32:08.188Z,33.40
2019-02-25T11:33:07.769Z,33.10
2019-02-25T11:34:08.094Z,33.20
2019-02-25T11:35:08.582Z,32.90
2019-02-25T11:36:05.100Z,33.10
2019-02-25T11:37:07.689Z,33.00
2019-02-25T11:38:05.696Z,33.00
2019-02-25T11:39:09.510Z,33.20
2019-02-25T11:40:05.849Z,33.10
2019-02-25T11:41:10.717Z,32.70
2019-02-25T11:42:10.182Z,32.80
2019-02-25T11:43:13.065Z,31.50
2019-02-25T11:44:07.781Z,32.10
2019-02-25T11:45:05.772Z,32.10
2019-02-25T11:46:05.893Z,31.90
2019-02-25T11:47:05.185Z,31.40
2019-02-25T11:48:05.475Z,31.50
2019-02-25T11:49:05.713Z,31.30
2019-02-25T11:50:05.862Z,31.20
2019-02-25T11:51:07.508Z,31.50
2019-02-25T11:52:05.423Z,31.50
2019-02-25T11:53:08.110Z,31.70
2019-02-25T11:54:05.218Z,31.70
2019-02-25T11:55:07.871Z,31.90
2019-02-25T11:56:08.374Z,31.60
2019-02-25T11:57:05.427Z,31.60
2019-02-25T11:58:10.691Z,31.90
2019-02-25T11:59:05.809Z,31.90
2019-02-25T12:00:05.961Z,31.60
2019-02-25T12:01:05.056Z,31.60
2019-02-25T12:02:05.209Z,31.50
2019-02-25T12:03:07.878Z,30.90
2019-02-25T12:04:05.894Z,30.90
2019-02-25T12:05:04.985Z,30.80
2019-02-25T12:06:05.196Z,30.40
2019-02-25T12:07:05.320Z,29.90
2019-02-25T12:08:07.965Z,30.40
2019-02-25T12:09:06.154Z,30.40
2019-02-25T12:10:07.766Z,30.80
2019-02-25T12:11:05.758Z,30.70
2019-02-25T12:12:08.357Z,29.80
2019-02-25T12:13:10.465Z,30.10
2019-02-25T12:14:05.451Z,30.10
2019-02-25T12:15:05.580Z,29.00
2019-02-25T12:16:05.634Z,28.60
2019-02-25T12:17:05.827Z,29.20
2019-02-25T12:18:05.945Z,28.90
2019-02-25T12:19:07.560Z,28.90
2019-02-25T12:20:05.664Z,28.90
2019-02-25T12:21:08.117Z,28.40
2019-02-25T12:22:07.808Z,28.70
2019-02-25T12:23:05.824Z,28.60
2019-02-25T12:24:08.511Z,28.70
2019-02-25T12:25:05.522Z,28.80
2019-02-25T12:26:10.685Z,28.30
2019-02-25T12:27:05.852Z,28.20
2019-02-25T12:28:04.947Z,27.90
2019-02-25T12:29:11.240Z,28.00
2019-02-25T12:30:05.330Z,28.00
2019-02-25T12:31:07.917Z,28.00
2019-02-25T12:32:08.484Z,27.70
2019-02-25T12:33:05.496Z,27.70
2019-02-25T12:34:08.158Z,27.60
2019-02-25T12:35:05.192Z,27.60
2019-02-25T12:36:05.300Z,27.90
2019-02-25T12:37:07.874Z,27.80
2019-02-25T12:38:05.843Z,27.60
2019-02-25T12:39:05.902Z,27.70
2019-02-25T12:40:04.976Z,27.00
2019-02-25T12:41:07.603Z,26.50
2019-02-25T12:42:08.123Z,27.00
2019-02-25T12:43:05.157Z,27.00
2019-02-25T12:44:05.291Z,27.10
2019-02-25T12:45:05.393Z,26.90
2019-02-25T12:46:08.006Z,27.00
2019-02-25T12:47:06.013Z,26.90
2019-02-25T12:48:07.813Z,26.90
2019-02-25T12:49:11.018Z,27.30
2019-02-25T12:50:05.047Z,27.20
2019-02-25T12:51:05.125Z,26.90
2019-02-25T12:52:07.807Z,27.10